Track Максименко Леонид

Time Latitude Longitude Accuracy (66% radius in meters) Altitude (meters) Speed (km/hour) Bearing (degrees) Battery (%) GPS flag
09:59:04 60.370927 29.556391 6 75 0 300.05825805664 81 1 delete
09:58:52 60.370927 29.556391 6 75 0 300.05825805664 81 1 delete
09:58:51 60.370900 29.556507 6 75 0 300.05825805664 81 1 delete
09:58:39 60.370900 29.556507 6 75 0 300.05825805664 81 1 delete
09:58:26 60.370900 29.556507 6 75 0 300.05825805664 81 1 delete
09:58:23 60.370900 29.556507 6 75 0 300.05825805664 81 1 delete
09:58:14 60.370880 29.556610 6 78 0 300.05825805664 81 1 delete
09:58:05 60.370874 29.556636 4 80 1.6207584142685 304.59243774414 81 1 delete
09:58:02 60.370831 29.556715 6 81 2.7235953807831 343.13259887695 81 1 delete
09:57:59 60.370772 29.556755 6 80 1.6955109834671 341.72991943359 81 1 delete
09:57:56 60.370715 29.556784 6 79 1.2940318584442 316.38412475586 81 1 delete
09:57:55 60.370709 29.556799 6 79 1.717594742775 314.10467529297 81 1 delete
09:57:53 60.370681 29.556863 6 78 5.2190217971802 309.8258972168 81 1 delete
09:57:52 60.370647 29.556947 6 77 5.7063207626343 309.27310180664 81 1 delete
09:57:51 60.370611 29.557038 6 77 5.5538263320923 309.72186279297 81 1 delete
09:57:50 60.370579 29.557129 6 75 5.5081706047058 294.60293579102 81 1 delete
09:57:48 60.370566 29.557316 6 76 5.2174305915833 224.8868560791 81 1 delete
09:57:46 60.370643 29.557407 6 78 6.2351427078247 176.67503356934 81 1 delete
09:57:45 60.370694 29.557386 6 79 6.4894886016846 160.56524658203 81 1 delete
09:57:44 60.370747 29.557326 6 80 6.7003703117371 147.37173461914 81 1 delete
09:57:43 60.370806 29.557233 6 81 7.0975904464722 147.17164611816 81 1 delete
09:57:42 60.370873 29.557136 6 81 7.8396353721619 150.36238098145 81 1 delete
09:57:41 60.370951 29.557040 6 83 7.956437587738 152.57160949707 81 1 delete
09:57:40 60.371028 29.556954 6 84 6.1041979789734 172.93156433105 81 1 delete
09:57:39 60.371084 29.556935 6 84 5.8577833175659 193.35081481934 81 1 delete
09:57:38 60.371135 29.556969 6 83 4.9440956115723 196.86437988281 81 1 delete
09:57:36 60.371195 29.557093 6 85 5.0960974693298 266.18145751953 81 1 delete
09:57:35 60.371193 29.557238 6 86 5.279990196228 300.54220581055 81 1 delete
09:57:34 60.371166 29.557340 6 86 6.3584885597229 301.45669555664 81 1 delete
09:57:33 60.371138 29.557458 6 85 6.3544526100159 301.67300415039 81 1 delete
09:57:32 60.371112 29.557574 6 86 6.5699572563171 300.71151733398 81 1 delete
09:57:31 60.371084 29.557690 6 87 7.0301151275635 304.26867675781 81 1 delete
09:57:30 60.371043 29.557832 6 88 5.9430413246155 309.47058105469 81 1 delete
09:57:29 60.370994 29.557959 6 90 5.7853670120239 309.90991210938 81 1 delete
09:57:28 60.370945 29.558086 6 90 5.6077904701233 316.32489013672 81 1 delete
09:57:27 60.370888 29.558201 6 90 5.4128131866455 322.28366088867 81 1 delete
09:57:26 60.370824 29.558299 6 89 5.2817244529724 331.08587646484 81 1 delete
09:57:25 60.370753 29.558372 6 89 5.1812252998352 332.74642944336 81 1 delete
09:57:24 60.370683 29.558429 6 88 5.0468649864197 338.69525146484 81 1 delete
09:57:23 60.370616 29.558475 6 89 4.9009613990784 349.75750732422 81 1 delete
09:57:22 60.370542 29.558512 6 90 4.7214241027832 348.89199829102 81 1 delete
09:57:21 60.370463 29.558558 6 90 4.5078468322754 343.70709228516 81 1 delete
09:57:20 60.370384 29.558611 6 91 4.3072729110718 342.42373657227 81 1 delete
09:57:19 60.370305 29.558655 6 91 4.0783462524414 347.0451965332 81 1 delete
09:57:18 60.370245 29.558677 6 93 3.8837976455688 348.3264465332 81 1 delete
09:57:17 60.370193 29.558693 6 93 3.7196214199066 10.622961997986 81 1 delete
09:57:15 60.370113 29.558650 6 95 3.6045703887939 27.240610122681 81 1 delete
09:57:13 60.370033 29.558588 6 93 3.3496408462524 20.616458892822 81 1 delete
09:57:11 60.369958 29.558573 6 94 3.1927804946899 355.1291809082 81 1 delete
09:57:09 60.369904 29.558594 6 93 3.2766396999359 0.21943677961826 81 1 delete